Simbrief Flight Plan

Flight Plan Options
Generated Flight Plan
Copies the generated flight plan to your device clipboard. Go to Infinite Flight, go to the map, press on the search box, long press in the popup text box and select paste, press ok.

Copies the URL to your clipboard for sharing.
  
Please login in order to save your plan to fpltoif.

Flight Plan Summary

  Departure Arrival
Airport Code VNKT ZPLJ
Elevation 4395 7359
Planned Runway 02 20
Current Weather 2019/06/26 09:50
VNKT 260950Z 16005KT 8000 FEW015 SCT030 BKN100 25/22 Q1007 NOSIG
2018/07/13 06:00
ZPLJ 130600Z 26004MPS 9999 FEW040CB SCT040 SCT083 24/16 Q1015 NOSIG
SID/STAR IGRI1B (SID) (STAR)
Aircraft TBM 900
Flight Level 29,000
Plan Distance 953 NM
Flight Time 2:43
Block Fuel 864
V-Speeds (KIAS) V1=    VR=    V2=
V-Speeds are not available with certain aircraft. When using Simbrief Classic, please change plan fomat to JBU
Climb Profile 170/40
Descent Profile 2000FPM
Passenger Count 4
Cargo Weight 0
Notes
System Remarks

Flight Plan Details

Waypoint
Stage
Status
IF FPL
Altitude
Airspeed
Mach Speed
VS to Next
Rem Dist
Delete
WPT
Add SID/STAR Waypoints

You can automatically add published SID/STARs into your plan. Select the SID and/or STAR you wish and press the insert button. The recommended SID/STAR for the runway is shown as a guide. Not all airports have SID/STARs available. SID/STAR waypoints that are already in the genereated plan will be ignored.

Due to different versions between SimBrief and the SID/STAR source names may not match 100%. For example, JASPA5 may be the same as JASPA7 if 5 does not exist.

Select SID
Recommended:
IGRI1B 02
Select STAR
Recommended:
20
 
Add Waypoints
Enter in your waypoint, press validate. The system will identify if there are duplicates in the world and show you a list of available waypoints. Select the one you wish to add and which waypoint to add it after.
Search for Waypoint
Select Waypoint
Add after:
 
Airport Diagrams
Airport diagram availability may be limited to North America only.
VNKT
ZPLJ
Route Map
Vertical Profile Map

This flight plan is for the use in ForeFlight.

ForeFlight Compatible Plan